Time;durP1;ratioP1;P1;durP2;ratioP2;P2;SDS_P1;SDS_P2;PMS_P1;PMS_P2;Temp;Humidity;BMP_temperature;BMP_pressure;BME280_temperature;BME280_humidity;BME280_pressure;Samples;Min_cycle;Max_cycle;Signal;HPM_P1;HPM_P2
2021/04/28 00:02:00;;;;;;;;;;;;;;;0.69;69.88;101394.95;1781044;79;20297;-81
2021/04/28 00:04:27;;;;;;;;;;;;;;;0.68;69.89;101392.27;1781380;80;20261;-81
2021/04/28 00:06:56;;;;;;;;;;;;;;;0.66;69.85;101398.63;1781143;80;20440;-82
2021/04/28 00:09:23;;;;;;;;;;;;;;;0.63;69.88;101392.31;1781102;79;20301;-82
2021/04/28 00:11:52;;;;;;;;;;;;;;;0.62;69.92;101395.30;1781168;80;22919;-82
2021/04/28 00:14:18;;;;;;;;;;;;;;;0.60;69.94;101394.25;1781006;80;21670;-81
2021/04/28 00:16:45;;;;;;;;;;;;;;;0.59;69.97;101387.29;1781129;80;20229;-81
2021/04/28 00:19:12;;;;;;;;;;;;;;;0.58;70.11;101383.81;1795776;79;20260;-81
2021/04/28 00:21:41;;;;;;;;;;;;;;;0.59;70.15;101387.29;1812730;77;20279;-82
2021/04/28 00:24:11;;;;;;;;;;;;;;;0.58;70.24;101382.88;1812767;79;21898;-81
2021/04/28 00:26:38;;;;;;;;;;;;;;;0.60;70.25;101385.19;1812639;79;20291;-81
2021/04/28 00:29:05;;;;;;;;;;;;;;;0.58;70.31;101383.81;1812677;79;20761;-82
2021/04/28 00:31:32;;;;;;;;;;;;;;;0.58;70.29;101389.36;1812604;79;20362;-82
2021/04/28 00:34:00;;;;;;;;;;;;;;;0.56;70.33;101382.80;1812845;79;20502;-82
2021/04/28 00:36:28;;;;;;;;;;;;;;;0.55;70.38;101378.78;1812791;78;21870;-81
2021/04/28 00:38:55;;;;;;;;;;;;;;;0.54;70.43;101383.44;1812654;79;20437;-82
2021/04/28 00:41:23;;;;;;;;;;;;;;;0.53;70.47;101386.44;1812621;77;20517;-82
2021/04/28 00:43:50;;;;;;;;;;;;;;;0.53;70.53;101387.73;1812633;78;20458;-82
2021/04/28 00:46:17;;;;;;;;;;;;;;;0.53;70.59;101385.14;1812641;79;20248;-82
2021/04/28 00:48:44;;;;;;;;;;;;;;;0.51;70.56;101380.24;1812649;78;21892;-82
2021/04/28 00:51:11;;;;;;;;;;;;;;;0.49;70.62;101384.41;1812568;79;20292;-82
2021/04/28 00:53:39;;;;;;;;;;;;;;;0.49;70.63;101384.78;1812464;79;20613;-82
2021/04/28 00:56:06;;;;;;;;;;;;;;;0.48;70.69;101383.88;1812683;79;20601;-82
2021/04/28 00:58:33;;;;;;;;;;;;;;;0.44;70.68;101381.86;1783499;79;20303;-81
2021/04/28 01:00:59;;;;;;;;;;;;;;;0.42;70.73;101377.36;1812748;79;21292;-82
2021/04/28 01:03:28;;;;;;;;;;;;;;;0.39;70.85;101376.71;1812659;79;21098;-81
2021/04/28 01:05:57;;;;;;;;;;;;;;;0.40;70.87;101377.23;1812579;78;20291;-81
2021/04/28 01:08:59;;;;;;;;;;;;;;;0.41;70.94;101378.12;1812712;78;20287;-80
2021/04/28 01:11:45;;;;;;;;;;;;;;;0.38;70.97;101372.34;1812528;77;20586;-81
2021/04/28 01:14:12;;;;;;;;;;;;;;;0.37;71.04;101376.59;1812666;78;21952;-81
2021/04/28 01:16:41;;;;;;;;;;;;;;;0.37;71.10;101373.11;1812621;79;20290;-82
2021/04/28 01:19:09;;;;;;;;;;;;;;;0.35;71.08;101369.09;1812467;77;20554;-81
2021/04/28 01:21:38;;;;;;;;;;;;;;;0.35;71.14;101372.09;1783247;79;21271;-81
2021/04/28 01:24:08;;;;;;;;;;;;;;;0.33;71.22;101367.19;1812766;77;20322;-82
2021/04/28 01:26:37;;;;;;;;;;;;;;;0.33;71.29;101362.02;1812793;79;22844;-81
2021/04/28 01:29:05;;;;;;;;;;;;;;;0.33;71.30;101364.20;1812753;79;20259;-82
2021/04/28 01:31:34;;;;;;;;;;;;;;;0.32;71.26;101365.37;1812739;79;21197;-81
2021/04/28 01:34:03;;;;;;;;;;;;;;;0.30;71.35;101364.36;1812729;79;20264;-81
2021/04/28 01:36:37;;;;;;;;;;;;;;;0.30;71.41;101362.69;1812829;77;20291;-81
2021/04/28 01:39:07;;;;;;;;;;;;;;;0.28;71.45;101355.58;1812697;77;21246;-81
2021/04/28 01:41:41;;;;;;;;;;;;;;;0.29;71.49;101358.69;1812627;79;20561;-81
2021/04/28 01:44:12;;;;;;;;;;;;;;;0.28;71.54;101353.91;1812876;79;20311;-81
2021/04/28 01:46:40;;;;;;;;;;;;;;;0.27;71.57;101354.69;1812703;79;20372;-81
2021/04/28 01:49:08;;;;;;;;;;;;;;;0.27;71.57;101353.79;1812924;79;20275;-81
2021/04/28 01:51:38;;;;;;;;;;;;;;;0.26;71.62;101352.86;1783706;79;22055;-81
2021/04/28 01:54:12;;;;;;;;;;;;;;;0.27;71.65;101348.61;1812799;79;20693;-82
2021/04/28 01:56:41;;;;;;;;;;;;;;;0.26;71.64;101345.09;1812719;77;20798;-81
2021/04/28 01:59:09;;;;;;;;;;;;;;;0.23;71.63;101347.47;1812682;78;20302;-81
2021/04/28 02:01:38;;;;;;;;;;;;;;;0.23;71.64;101347.88;1812701;79;20660;-81
2021/04/28 02:04:07;;;;;;;;;;;;;;;0.21;71.68;101347.75;1812687;79;21888;-82
2021/04/28 02:06:39;;;;;;;;;;;;;;;0.21;71.70;101346.45;1812875;79;20264;-83
2021/04/28 02:09:07;;;;;;;;;;;;;;;0.19;71.70;101343.75;1812860;77;20279;-82
2021/04/28 02:11:35;;;;;;;;;;;;;;;0.16;71.70;101344.80;1812669;79;21201;-81
2021/04/28 02:14:04;;;;;;;;;;;;;;;0.16;71.74;101341.31;1812861;78;20282;-82
2021/04/28 02:16:33;;;;;;;;;;;;;;;0.13;71.76;101343.29;1812881;79;21209;-82
2021/04/28 02:19:05;;;;;;;;;;;;;;;0.11;71.80;101343.56;1813202;79;20279;-81
2021/04/28 02:21:33;;;;;;;;;;;;;;;0.12;71.86;101337.98;1816456;77;20299;-81
2021/04/28 02:24:02;;;;;;;;;;;;;;;0.11;71.89;101334.87;1816372;78;21248;-82
2021/04/28 02:26:30;;;;;;;;;;;;;;;0.09;71.92;101336.05;1816502;78;20287;-82
2021/04/28 02:28:59;;;;;;;;;;;;;;;0.07;71.93;101334.14;1816528;78;21830;-82
2021/04/28 02:31:27;;;;;;;;;;;;;;;0.05;71.95;101331.83;1816465;78;20267;-82
2021/04/28 02:33:55;;;;;;;;;;;;;;;0.04;71.98;101324.83;1816424;78;20521;-82
2021/04/28 02:36:24;;;;;;;;;;;;;;;0.04;72.09;101324.47;1816308;78;20299;-82
2021/04/28 02:38:54;;;;;;;;;;;;;;;0.04;72.10;101320.95;1816333;78;20310;-81
2021/04/28 02:41:22;;;;;;;;;;;;;;;0.03;72.14;101325.64;1816435;79;21892;-82
2021/04/28 02:43:51;;;;;;;;;;;;;;;0.02;72.25;101318.27;1816616;79;20260;-82
2021/04/28 02:46:19;;;;;;;;;;;;;;;0.03;72.31;101314.88;1816598;78;20256;-82
2021/04/28 02:48:47;;;;;;;;;;;;;;;0.05;72.30;101318.89;1816430;79;20572;-82
2021/04/28 02:51:15;;;;;;;;;;;;;;;0.05;72.28;101313.31;1816287;79;20345;-82
2021/04/28 02:53:44;;;;;;;;;;;;;;;0.04;72.31;101316.70;1816365;78;23401;-82
2021/04/28 02:56:12;;;;;;;;;;;;;;;0.05;72.33;101315.90;1816400;79;21137;-82
2021/04/28 02:58:39;;;;;;;;;;;;;;;0.04;72.30;101314.48;1816240;79;20294;-82
2021/04/28 03:01:08;;;;;;;;;;;;;;;0.03;72.25;101310.11;1816387;78;20482;-82
2021/04/28 03:03:35;;;;;;;;;;;;;;;0.01;72.27;101312.98;1816444;78;20594;-82
2021/04/28 03:06:03;;;;;;;;;;;;;;;-0.04;72.29;101309.66;1816533;78;21886;-82
2021/04/28 03:08:30;;;;;;;;;;;;;;;-0.04;72.36;101317.78;1816284;79;20958;-81
2021/04/28 03:10:58;;;;;;;;;;;;;;;-0.04;72.48;101313.90;1816217;79;20604;-82
2021/04/28 03:13:26;;;;;;;;;;;;;;;-0.03;72.52;101320.49;1816237;78;21108;-82
2021/04/28 03:15:54;;;;;;;;;;;;;;;-0.01;72.57;101315.04;1816215;79;20302;-82
2021/04/28 03:18:22;;;;;;;;;;;;;;;0.01;72.54;101312.98;1815957;77;22888;-82
2021/04/28 03:20:49;;;;;;;;;;;;;;;0.02;72.54;101319.56;1786504;79;21333;-82
2021/04/28 03:23:25;;;;;;;;;;;;;;;0.06;72.53;101315.53;1810311;79;20268;-82
2021/04/28 03:25:47;;;;;;;;;;;;;;;0.09;72.57;101311.86;1785225;79;20294;-82
2021/04/28 03:28:14;;;;;;;;;;;;;;;0.12;72.60;101315.98;1810313;79;20593;-83
2021/04/28 03:30:42;;;;;;;;;;;;;;;0.17;72.57;101315.95;1810436;78;22993;-81
2021/04/28 03:33:09;;;;;;;;;;;;;;;0.23;72.59;101315.52;1810406;78;20373;-81
2021/04/28 03:35:37;;;;;;;;;;;;;;;0.26;72.58;101310.14;1785401;79;20706;-81
2021/04/28 03:38:04;;;;;;;;;;;;;;;0.32;72.55;101313.58;1810396;79;20537;-82
2021/04/28 03:40:31;;;;;;;;;;;;;;;0.40;72.71;101309.01;1810374;78;20291;-83
2021/04/28 03:42:58;;;;;;;;;;;;;;;1.05;74.08;101312.02;1810303;78;21821;-82
2021/04/28 03:45:27;;;;;;;;;;;;;;;2.11;74.44;101311.24;1810168;78;20577;-81
2021/04/28 03:47:55;;;;;;;;;;;;;;;3.21;73.94;101300.19;1810408;78;20327;-81
2021/04/28 03:50:22;;;;;;;;;;;;;;;4.31;73.20;101302.14;1810544;79;20633;-81
2021/04/28 03:52:49;;;;;;;;;;;;;;;5.43;72.12;101299.78;1810502;79;20295;-82
2021/04/28 03:55:16;;;;;;;;;;;;;;;6.41;70.74;101294.50;1810483;79;22838;-82
2021/04/28 03:57:42;;;;;;;;;;;;;;;7.29;69.46;101297.45;1810323;78;20604;-82
2021/04/28 04:00:12;;;;;;;;;;;;;;;8.22;68.25;101301.60;1811084;79;20275;-88
2021/04/28 04:02:39;;;;;;;;;;;;;;;9.09;66.80;101299.14;1811304;79;20303;-90
2021/04/28 04:05:07;;;;;;;;;;;;;;;9.96;65.00;101292.34;1811150;79;20235;-86
2021/04/28 04:07:34;;;;;;;;;;;;;;;10.66;63.46;101292.63;1811398;79;22081;-94
2021/04/28 04:10:01;;;;;;;;;;;;;;;11.34;62.11;101290.83;1811422;79;20232;-87
2021/04/28 04:12:32;;;;;;;;;;;;;;;12.01;60.87;101295.90;1809127;78;20272;-90
2021/04/28 04:14:59;;;;;;;;;;;;;;;12.68;59.83;101288.39;1808413;79;20636;-89
2021/04/28 04:17:27;;;;;;;;;;;;;;;13.38;58.45;101290.50;1808909;79;20314;-86
2021/04/28 04:19:54;;;;;;;;;;;;;;;14.02;57.28;101287.00;1807995;78;21819;-86
2021/04/28 04:22:21;;;;;;;;;;;;;;;14.73;56.50;101289.20;1807474;79;21079;-91
2021/04/28 04:24:48;;;;;;;;;;;;;;;15.44;55.44;101293.34;1807643;79;20542;-89
2021/04/28 04:27:15;;;;;;;;;;;;;;;16.19;54.47;101287.64;1807849;79;21296;-88
2021/04/28 04:29:42;;;;;;;;;;;;;;;16.98;53.19;101291.91;1807557;79;20588;-86
2021/04/28 04:32:09;;;;;;;;;;;;;;;17.57;51.98;101290.93;1807378;78;22176;-88
2021/04/28 04:34:36;;;;;;;;;;;;;;;18.10;50.90;101291.63;1807188;79;20327;-86
2021/04/28 04:37:03;;;;;;;;;;;;;;;18.73;49.97;101290.38;1807333;79;20279;-90
2021/04/28 04:39:30;;;;;;;;;;;;;;;19.19;48.80;101296.14;1807239;79;21371;-84
2021/04/28 04:41:57;;;;;;;;;;;;;;;19.67;48.02;101300.00;1807126;79;20295;-83
2021/04/28 04:44:23;;;;;;;;;;;;;;;20.15;47.20;101298.91;1806898;79;21785;-81
2021/04/28 04:46:50;;;;;;;;;;;;;;;20.73;46.33;101296.31;1807003;79;21107;-86
2021/04/28 04:49:18;;;;;;;;;;;;;;;21.16;45.41;101301.27;1806961;79;20237;-81
2021/04/28 04:51:44;;;;;;;;;;;;;;;21.61;44.58;101299.95;1806893;78;20385;-83
2021/04/28 04:54:11;;;;;;;;;;;;;;;22.03;43.72;101298.48;1807297;79;20288;-82
2021/04/28 04:56:38;;;;;;;;;;;;;;;22.42;42.95;101296.64;1806868;78;23036;-81
2021/04/28 04:59:05;;;;;;;;;;;;;;;22.73;42.07;101289.42;1807008;79;20508;-82
2021/04/28 05:01:37;;;;;;;;;;;;;;;23.05;41.44;101290.26;1807296;79;20271;-88
2021/04/28 05:04:25;;;;;;;;;;;;;;;23.55;40.87;101292.88;1806994;79;20755;-88
2021/04/28 05:07:12;;;;;;;;;;;;;;;23.98;39.95;101294.22;1802558;79;20256;-88
2021/04/28 05:09:39;;;;;;;;;;;;;;;24.35;39.49;101299.24;1797630;79;21888;-89
2021/04/28 05:12:06;;;;;;;;;;;;;;;24.95;38.98;101292.41;1790802;80;20310;-89
2021/04/28 05:14:36;;;;;;;;;;;;;;;25.28;37.88;101289.74;1790819;80;20267;-87
2021/04/28 05:17:01;;;;;;;;;;;;;;;25.37;37.29;101292.19;1790795;80;20480;-87
2021/04/28 05:19:29;;;;;;;;;;;;;;;25.72;37.07;101291.17;1790939;80;20271;-88
2021/04/28 05:21:56;;;;;;;;;;;;;;;25.93;36.49;101278.02;1790932;78;21836;-88
2021/04/28 05:24:26;;;;;;;;;;;;;;;26.06;35.56;101286.61;1790768;80;20324;-88
2021/04/28 05:26:53;;;;;;;;;;;;;;;25.93;34.96;101296.89;1790947;80;20544;-88
2021/04/28 05:29:20;;;;;;;;;;;;;;;25.65;34.58;101290.94;1790855;80;21445;-88
2021/04/28 05:31:47;;;;;;;;;;;;;;;25.43;34.48;101291.13;1790783;80;20267;-88
2021/04/28 05:34:14;;;;;;;;;;;;;;;24.19;33.65;101288.81;1790960;80;21946;-88
2021/04/28 05:36:43;;;;;;;;;;;;;;;22.45;33.12;101295.27;1790617;80;20353;-88
2021/04/28 05:39:10;;;;;;;;;;;;;;;20.37;33.48;101305.48;1790911;80;20663;-89
2021/04/28 05:41:36;;;;;;;;;;;;;;;18.53;34.15;101302.36;1791059;80;21558;-89
2021/04/28 05:44:04;;;;;;;;;;;;;;;16.91;35.12;101311.35;1791245;80;20513;-89
2021/04/28 05:46:31;;;;;;;;;;;;;;;15.66;36.10;101310.45;1791303;80;21697;-89
2021/04/28 05:48:58;;;;;;;;;;;;;;;14.60;37.26;101309.70;1790990;80;20298;-89
2021/04/28 05:51:25;;;;;;;;;;;;;;;13.70;37.89;101310.14;1791158;80;20299;-89
2021/04/28 05:53:52;;;;;;;;;;;;;;;12.86;38.81;101315.67;1760844;80;20298;-89
2021/04/28 05:56:19;;;;;;;;;;;;;;;12.28;39.75;101323.01;1791392;80;20280;-89
2021/04/28 05:58:46;;;;;;;;;;;;;;;11.68;40.40;101325.68;1791243;80;21886;-89
2021/04/28 06:01:15;;;;;;;;;;;;;;;11.12;41.15;101322.20;1791259;80;20277;-89
2021/04/28 06:03:42;;;;;;;;;;;;;;;10.48;41.82;101326.23;1791109;79;20295;-88
2021/04/28 06:06:09;;;;;;;;;;;;;;;9.89;42.47;101328.45;1791418;79;20310;-88
2021/04/28 06:08:35;;;;;;;;;;;;;;;9.33;43.51;101332.05;1791279;80;20315;-88
2021/04/28 06:11:02;;;;;;;;;;;;;;;9.04;44.33;101329.56;1760913;80;21903;-88
2021/04/28 06:13:29;;;;;;;;;;;;;;;8.78;45.09;101333.31;1791428;80;20375;-88
2021/04/28 06:15:56;;;;;;;;;;;;;;;8.58;45.70;101331.19;1791370;80;20544;-88
2021/04/28 06:18:23;;;;;;;;;;;;;;;8.33;46.28;101331.42;1791275;80;20759;-88
2021/04/28 06:20:50;;;;;;;;;;;;;;;8.21;46.98;101327.36;1791141;79;20318;-88
2021/04/28 06:23:18;;;;;;;;;;;;;;;8.08;47.39;101328.12;1791213;80;22152;-88
2021/04/28 06:25:46;;;;;;;;;;;;;;;7.89;47.66;101336.89;1791146;80;20268;-88
2021/04/28 06:28:13;;;;;;;;;;;;;;;7.79;48.35;101339.94;1791134;80;20592;-88
2021/04/28 06:30:40;;;;;;;;;;;;;;;7.76;48.78;101335.44;1791179;80;20543;-88
2021/04/28 06:33:06;;;;;;;;;;;;;;;7.68;49.05;101330.69;1791524;80;20228;-88
2021/04/28 06:35:33;;;;;;;;;;;;;;;7.67;49.35;101332.38;1791423;80;22095;-88
2021/04/28 06:38:00;;;;;;;;;;;;;;;7.64;49.46;101328.72;1791048;80;20251;-88
2021/04/28 06:40:27;;;;;;;;;;;;;;;7.63;49.70;101332.19;1791269;80;20283;-88
2021/04/28 06:42:54;;;;;;;;;;;;;;;7.59;49.93;101330.72;1791268;80;20590;-88
2021/04/28 06:45:21;;;;;;;;;;;;;;;7.54;50.10;101327.41;1791437;80;20276;-88
2021/04/28 06:47:48;;;;;;;;;;;;;;;7.52;50.46;101326.44;1791362;80;22666;-88
2021/04/28 06:50:16;;;;;;;;;;;;;;;7.43;50.51;101320.35;1791421;80;20264;-88
2021/04/28 06:52:44;;;;;;;;;;;;;;;7.35;50.71;101322.61;1791433;80;20280;-88
2021/04/28 06:55:12;;;;;;;;;;;;;;;7.34;51.05;101326.50;1791403;80;21255;-88
2021/04/28 06:57:38;;;;;;;;;;;;;;;7.33;51.29;101320.34;1791409;80;20286;-88
2021/04/28 07:00:06;;;;;;;;;;;;;;;7.38;51.42;101318.84;1791451;80;21964;-87
2021/04/28 07:02:33;;;;;;;;;;;;;;;7.42;51.50;101319.00;1791227;80;20596;-88
2021/04/28 07:05:00;;;;;;;;;;;;;;;7.40;51.59;101322.84;1791144;80;20342;-89
2021/04/28 07:07:27;;;;;;;;;;;;;;;7.43;51.88;101319.04;1791510;80;20272;-87
2021/04/28 07:09:57;;;;;;;;;;;;;;;7.43;51.94;101311.19;1791234;80;20243;-87
2021/04/28 07:12:22;;;;;;;;;;;;;;;7.43;51.98;101317.73;1791081;80;22709;-87
2021/04/28 07:14:49;;;;;;;;;;;;;;;7.44;52.14;101315.61;1791304;80;20272;-87
2021/04/28 07:17:16;;;;;;;;;;;;;;;7.45;52.30;101310.88;1791315;80;20768;-88
2021/04/28 07:19:43;;;;;;;;;;;;;;;7.51;52.56;101306.33;1791204;80;20563;-87
2021/04/28 07:22:10;;;;;;;;;;;;;;;7.58;52.77;101304.45;1796066;79;20232;-87
2021/04/28 07:24:37;;;;;;;;;;;;;;;7.64;52.78;101307.77;1796984;80;22684;-87
2021/04/28 07:27:04;;;;;;;;;;;;;;;7.67;52.75;101306.61;1796956;80;20228;-87
2021/04/28 07:29:31;;;;;;;;;;;;;;;7.69;52.71;101306.27;1797030;80;20275;-86
2021/04/28 07:32:02;;;;;;;;;;;;;;;7.73;53.00;101308.19;1796930;80;20337;-87
2021/04/28 07:34:26;;;;;;;;;;;;;;;7.74;52.70;101304.33;1796661;78;20258;-87
2021/04/28 07:36:55;;;;;;;;;;;;;;;7.70;52.36;101309.38;1797007;80;21956;-88
2021/04/28 07:39:22;;;;;;;;;;;;;;;7.64;52.85;101306.06;1796751;78;20312;-87
2021/04/28 07:41:49;;;;;;;;;;;;;;;7.70;53.17;101306.76;1768066;80;20279;-88
2021/04/28 07:44:16;;;;;;;;;;;;;;;7.70;53.13;101302.41;1796978;80;20517;-88
2021/04/28 07:46:43;;;;;;;;;;;;;;;7.74;53.40;101301.70;1796820;79;20561;-88
2021/04/28 07:49:10;;;;;;;;;;;;;;;7.81;53.36;101292.41;1796940;80;22686;-88
2021/04/28 07:51:40;;;;;;;;;;;;;;;7.91;53.51;101293.72;1796886;80;21078;-88
2021/04/28 07:54:07;;;;;;;;;;;;;;;8.02;53.54;101290.27;1796925;80;20227;-88
2021/04/28 07:56:34;;;;;;;;;;;;;;;8.04;53.28;101293.42;1796968;80;21278;-88
2021/04/28 07:59:01;;;;;;;;;;;;;;;8.07;53.29;101294.88;1796881;80;20227;-87
2021/04/28 08:01:27;;;;;;;;;;;;;;;8.10;53.41;101291.06;1796832;80;21938;-88
2021/04/28 08:03:54;;;;;;;;;;;;;;;8.18;53.35;101291.39;1796722;80;20553;-88
2021/04/28 08:06:21;;;;;;;;;;;;;;;8.25;53.27;101286.01;1797095;80;20974;-87
2021/04/28 08:08:48;;;;;;;;;;;;;;;8.32;52.75;101286.34;1797114;80;20399;-88
2021/04/28 08:11:15;;;;;;;;;;;;;;;8.38;52.52;101280.03;1797270;80;20255;-89
2021/04/28 08:13:42;;;;;;;;;;;;;;;8.47;52.51;101289.17;1797206;80;22086;-88
2021/04/28 08:16:09;;;;;;;;;;;;;;;8.59;52.47;101279.59;1797100;80;21065;-89
2021/04/28 08:18:35;;;;;;;;;;;;;;;8.68;52.43;101278.24;1797066;78;20318;-89
2021/04/28 08:21:05;;;;;;;;;;;;;;;8.80;52.55;101280.89;1795724;79;20477;-89
2021/04/28 08:23:32;;;;;;;;;;;;;;;8.89;52.03;101278.21;1791520;80;20314;-89
2021/04/28 08:26:03;;;;;;;;;;;;;;;9.01;52.18;101281.77;1791177;80;22941;-89
2021/04/28 08:28:30;;;;;;;;;;;;;;;9.14;51.88;101275.24;1760747;80;21517;-88
2021/04/28 08:30:57;;;;;;;;;;;;;;;9.23;51.42;101272.98;1791491;79;20256;-89
2021/04/28 08:33:23;;;;;;;;;;;;;;;9.29;51.17;101273.23;1792157;80;21010;-88
2021/04/28 08:35:53;;;;;;;;;;;;;;;9.37;51.05;101267.39;1791908;80;20224;-88
2021/04/28 08:38:21;;;;;;;;;;;;;;;9.49;51.08;101271.77;1791568;80;22079;-87
2021/04/28 08:40:51;;;;;;;;;;;;;;;9.58;50.54;101264.67;1791350;80;20576;-88
2021/04/28 08:43:23;;;;;;;;;;;;;;;9.65;50.40;101261.01;1791603;79;20388;-89
2021/04/28 08:45:50;;;;;;;;;;;;;;;9.74;50.29;101256.48;1791325;80;21243;-88
2021/04/28 08:48:17;;;;;;;;;;;;;;;9.84;50.04;101258.62;1791319;79;20247;-87
2021/04/28 08:50:46;;;;;;;;;;;;;;;9.92;49.73;101251.89;1791432;80;22865;-89
2021/04/28 08:53:15;;;;;;;;;;;;;;;10.03;49.28;101247.45;1791830;80;20318;-89
2021/04/28 08:55:45;;;;;;;;;;;;;;;10.13;49.23;101250.86;1791634;80;20271;-89
2021/04/28 08:58:12;;;;;;;;;;;;;;;10.24;49.04;101252.12;1791119;79;20487;-88
2021/04/28 09:00:39;;;;;;;;;;;;;;;10.40;48.86;101255.30;1814180;79;20294;-89
2021/04/28 09:03:06;;;;;;;;;;;;;;;10.48;48.56;101248.58;1819446;79;21886;-89
2021/04/28 09:05:35;;;;;;;;;;;;;;;10.55;48.11;101244.39;1819236;78;20227;-89
2021/04/28 09:08:10;;;;;;;;;;;;;;;10.63;47.42;101244.25;1819407;78;20225;-89
2021/04/28 09:10:36;;;;;;;;;;;;;;;10.72;47.53;101244.95;1818959;79;20592;-89
2021/04/28 09:13:09;;;;;;;;;;;;;;;10.86;47.51;101239.71;1819383;78;20517;-88
2021/04/28 09:15:42;;;;;;;;;;;;;;;10.96;47.07;101242.20;1817963;79;21750;-89
2021/04/28 09:18:11;;;;;;;;;;;;;;;10.97;46.75;101240.94;1818388;79;20352;-90
2021/04/28 09:20:44;;;;;;;;;;;;;;;11.03;46.95;101233.22;1819416;79;20256;-88
2021/04/28 09:23:23;;;;;;;;;;;;;;;11.13;46.55;101237.05;1818668;78;20511;-89
2021/04/28 09:25:51;;;;;;;;;;;;;;;11.18;46.16;101229.27;1818821;79;20247;-89
2021/04/28 09:28:32;;;;;;;;;;;;;;;11.27;46.27;101229.55;1819235;78;21888;-89
2021/04/28 09:31:10;;;;;;;;;;;;;;;11.36;46.11;101228.52;1819581;78;21151;-89
2021/04/28 09:33:55;;;;;;;;;;;;;;;11.43;45.89;101219.94;1819514;79;20263;-89
2021/04/28 09:36:32;;;;;;;;;;;;;;;11.53;46.13;101225.05;1819460;78;20311;-88
2021/04/28 09:39:05;;;;;;;;;;;;;;;11.78;45.72;101220.02;1819530;79;20484;-89
2021/04/28 09:41:39;;;;;;;;;;;;;;;12.02;44.85;101213.67;1819569;79;22094;-89
2021/04/28 09:44:21;;;;;;;;;;;;;;;12.21;44.49;101217.24;1819434;79;21213;-88
2021/04/28 09:47:06;;;;;;;;;;;;;;;12.45;44.57;101212.13;1819415;79;20251;-89
2021/04/28 09:49:53;;;;;;;;;;;;;;;12.71;44.15;101200.88;1819457;78;20359;-89
2021/04/28 09:52:26;;;;;;;;;;;;;;;12.87;43.99;101198.14;1819540;78;20219;-89
2021/04/28 09:54:53;;;;;;;;;;;;;;;13.00;43.69;101188.31;1816810;79;21887;-89
2021/04/28 09:57:37;;;;;;;;;;;;;;;13.11;43.54;101191.63;1819294;78;20223;-90
2021/04/28 10:00:20;;;;;;;;;;;;;;;13.14;42.71;101185.98;1819616;79;20287;-89
2021/04/28 10:02:56;;;;;;;;;;;;;;;13.07;42.36;101180.54;1819267;79;20296;-89
2021/04/28 10:05:28;;;;;;;;;;;;;;;13.15;42.24;101177.62;1819343;79;20526;-89
2021/04/28 10:08:07;;;;;;;;;;;;;;;13.37;42.15;101174.59;1787593;79;21886;-89
2021/04/28 10:10:34;;;;;;;;;;;;;;;13.57;42.12;101166.16;1804274;79;21045;-90
2021/04/28 10:13:01;;;;;;;;;;;;;;;13.64;41.58;101163.20;1819321;78;20707;-89
2021/04/28 10:15:29;;;;;;;;;;;;;;;13.63;41.31;101166.30;1819508;78;20356;-89
2021/04/28 10:17:55;;;;;;;;;;;;;;;13.59;41.02;101164.02;1819492;79;20240;-89
2021/04/28 10:20:23;;;;;;;;;;;;;;;13.53;40.81;101160.34;1819440;79;21889;-90
2021/04/28 10:22:50;;;;;;;;;;;;;;;13.53;40.79;101151.09;1815772;78;20252;-90
2021/04/28 10:25:17;;;;;;;;;;;;;;;13.41;40.49;101155.72;1814440;79;20271;-89
2021/04/28 10:27:44;;;;;;;;;;;;;;;13.27;40.75;101164.67;1814377;79;20267;-90
2021/04/28 10:30:16;;;;;;;;;;;;;;;13.34;40.72;101156.45;1814637;79;20252;-89
2021/04/28 10:32:43;;;;;;;;;;;;;;;13.59;40.85;101150.80;1814476;79;22059;-89
2021/04/28 10:35:13;;;;;;;;;;;;;;;13.89;40.70;101148.26;1814298;79;20259;-89
2021/04/28 10:37:41;;;;;;;;;;;;;;;14.12;40.58;101144.67;1813714;79;20255;-90
2021/04/28 10:40:16;;;;;;;;;;;;;;;14.27;40.21;101146.69;1814569;79;20313;-90
2021/04/28 10:42:43;;;;;;;;;;;;;;;14.35;40.06;101140.19;1814384;79;20528;-90
2021/04/28 10:45:11;;;;;;;;;;;;;;;14.43;39.93;101131.91;1814438;79;21944;-90
2021/04/28 10:47:40;;;;;;;;;;;;;;;14.70;39.96;101128.83;1814438;79;20557;-90
2021/04/28 10:50:28;;;;;;;;;;;;;;;14.95;39.83;101130.48;1814665;79;20481;-90
2021/04/28 10:53:23;;;;;;;;;;;;;;;15.21;39.48;101125.51;1784616;79;20527;-90
2021/04/28 10:55:57;;;;;;;;;;;;;;;15.18;38.87;101129.44;1750504;82;20299;-89
2021/04/28 10:58:28;;;;;;;;;;;;;;;14.99;38.63;101136.27;1750522;82;21881;-89
2021/04/28 11:01:03;;;;;;;;;;;;;;;14.82;38.69;101132.52;1750697;82;20623;-92
2021/04/28 11:03:34;;;;;;;;;;;;;;;14.65;38.53;101125.66;1750386;82;20416;-89
2021/04/28 11:06:28;;;;;;;;;;;;;;;14.68;38.43;101124.39;1750539;82;21220;-89
2021/04/28 11:09:04;;;;;;;;;;;;;;;14.67;38.65;101119.94;1750539;82;20268;-89
2021/04/28 11:11:45;;;;;;;;;;;;;;;14.55;38.17;101122.84;1750465;82;21888;-89
2021/04/28 11:14:19;;;;;;;;;;;;;;;14.34;38.13;101123.41;1750403;82;20371;-91
2021/04/28 11:16:48;;;;;;;;;;;;;;;14.26;38.41;101117.09;1750300;82;20604;-91
2021/04/28 11:19:19;;;;;;;;;;;;;;;14.30;38.47;101111.00;1750298;81;20585;-91
2021/04/28 11:21:46;;;;;;;;;;;;;;;14.35;38.42;101112.38;1750417;81;20370;-89
2021/04/28 11:24:14;;;;;;;;;;;;;;;14.47;38.27;101102.39;1749843;81;22124;-89
2021/04/28 11:26:53;;;;;;;;;;;;;;;14.70;38.63;101108.08;1749715;81;20307;-89
2021/04/28 11:29:20;;;;;;;;;;;;;;;15.04;38.35;101097.47;1750018;81;20344;-90
2021/04/28 11:31:53;;;;;;;;;;;;;;;15.32;38.04;101100.00;1750463;79;20319;-90
2021/04/28 11:34:26;;;;;;;;;;;;;;;15.51;37.77;101094.89;1819991;79;20573;-90
2021/04/28 11:37:00;;;;;;;;;;;;;;;15.59;37.32;101096.30;1819702;79;21878;-91
2021/04/28 11:39:42;;;;;;;;;;;;;;;15.67;37.39;101096.84;1819535;79;21147;-90
2021/04/28 11:42:15;;;;;;;;;;;;;;;15.74;37.07;101085.41;1819579;78;20231;-90
2021/04/28 11:44:49;;;;;;;;;;;;;;;15.62;36.76;101091.03;1819314;79;21137;-91
2021/04/28 11:47:27;;;;;;;;;;;;;;;15.55;36.83;101089.62;1819342;78;20354;-90
2021/04/28 11:50:14;;;;;;;;;;;;;;;15.57;36.68;101077.70;1814013;79;20562;-90
2021/04/28 11:52:41;;;;;;;;;;;;;;;15.67;36.50;101072.95;1819153;78;21247;-90
2021/04/28 11:55:09;;;;;;;;;;;;;;;15.69;36.56;101067.22;1819344;78;20239;-90
2021/04/28 11:57:36;;;;;;;;;;;;;;;15.71;36.43;101060.16;1819453;78;20585;-90
2021/04/28 12:00:11;;;;;;;;;;;;;;;15.72;36.43;101061.92;1819410;78;20600;-90
2021/04/28 12:02:38;;;;;;;;;;;;;;;15.72;36.49;101065.02;1819590;79;21890;-89
2021/04/28 12:05:07;;;;;;;;;;;;;;;15.57;36.16;101064.44;1819343;79;21100;-91
2021/04/28 12:07:35;;;;;;;;;;;;;;;15.32;36.04;101057.56;1819071;79;20638;-89
2021/04/28 12:10:02;;;;;;;;;;;;;;;15.29;36.13;101053.98;1819554;79;20295;-90
2021/04/28 12:12:32;;;;;;;;;;;;;;;15.30;36.07;101050.03;1819442;78;20537;-90
2021/04/28 12:15:10;;;;;;;;;;;;;;;15.36;36.08;101044.78;1819460;79;21832;-91
2021/04/28 12:17:40;;;;;;;;;;;;;;;15.36;36.22;101026.22;1786992;79;40918;-90
2021/04/28 12:20:10;;;;;;;;;;;;;;;15.51;35.94;101043.16;1819125;79;20481;-90
2021/04/28 12:22:37;;;;;;;;;;;;;;;15.39;35.69;101041.29;1818973;78;21218;-91
2021/04/28 12:25:08;;;;;;;;;;;;;;;15.19;35.49;101041.08;1819241;79;20263;-90
2021/04/28 12:27:39;;;;;;;;;;;;;;;15.00;35.59;101036.01;1819192;79;21185;-89
2021/04/28 12:30:08;;;;;;;;;;;;;;;14.95;35.76;101038.59;1819110;79;20239;-90
2021/04/28 12:32:40;;;;;;;;;;;;;;;14.86;35.59;101030.52;1818959;79;20301;-89
2021/04/28 12:35:23;;;;;;;;;;;;;;;14.84;35.65;101028.30;1819047;79;20511;-89
2021/04/28 12:38:05;;;;;;;;;;;;;;;15.05;35.92;101026.77;1818947;79;20299;-89
2021/04/28 12:40:41;;;;;;;;;;;;;;;15.19;35.51;101021.19;1818368;78;21885;-90
2021/04/28 12:43:10;;;;;;;;;;;;;;;15.16;35.42;101011.45;1787128;79;20211;-90
2021/04/28 12:45:38;;;;;;;;;;;;;;;15.09;35.48;101017.97;1818937;79;20318;-90
2021/04/28 12:48:17;;;;;;;;;;;;;;;15.11;35.61;101014.48;1818866;78;20317;-90
2021/04/28 12:50:52;;;;;;;;;;;;;;;15.12;35.34;101006.96;1788313;79;20275;-90
2021/04/28 12:53:20;;;;;;;;;;;;;;;15.03;35.18;101009.95;1818828;79;22029;-90
2021/04/28 12:55:56;;;;;;;;;;;;;;;14.91;35.11;101002.33;1786862;78;20486;-89